Portada
METAR-TAF:

METAR-TAF

Aeroports :

Guilin, Xina

latitud: 25-20N, longitud: 110-18E, altitud: 166 m

Observació

L'informe es va fer fa 49 minuts, a les 09:00 UTC
Vent calma
Temperatura 17°C
Humitat 94%
Pressió 1009 hPa
Visibilitat: 4500 m
Escasses núvols a una alçada de 400 ft
Núvols disperses a una alçada de 2000 ft
Cel cobert a una alçada de 5600 ft
boirina

METAR: ZGKL 190900Z 00000MPS 4500 BR FEW004 SCT020 OVC056 17/16 Q1009 RETSRA NOSIG

Hora: 17:49 (09:49 UTC)

Pronòstic

L'informe es va fer fa 6 hores i 38 minuts, a les 03:11 UTC
Pronòstic vàlid del 19 a les 06 UTC al 20 a les 06 UTC
Vent 6 kt del Sud
Visibilitat: 3500 m
Núvols disperses a una alçada de 1200 ft
Cel cobert a una alçada de 3300 ft
boirina

TAF: ZGKL 190311Z 1906/2006 17003MPS 3500 BR SCT012 OVC033 TX18/1907Z TN15/1922Z

Observacions i pronòstics meteorològics de més de 4000 aeroports (METAR i TAF).

Les estacions disponibles són els punts grocs i vermells al mapa.

Posi el ratolí al punt desitjat per veure el nom de l'estació.

Feu clic per veure les observacions i els pronòstics meteorològics.

Per canviar el mapa: feu clic els botons verds amb una creu de color negre per apropar; al botó verd amb un guió per allunyar la imatge; o en les fletxes verdes per a mapes adjacents.


METAR-TAF: